Meteo Giornale » Osservazioni meteo India » Nagpur Sonegaon
ore: 16:00 - Osservazioni Meteo Nagpur Sonegaon
Lat. 21° 6' N Lon. 79° 3' E Alt. 308 metri s.l.m.
29 °C
Foschia
Temp. 24 Ore
24 °C
30 °C
Ovest/Nord-Ovest
18.5 Km/h
Dew point 21 °C
Umidità 62 %
Visibilità 5 Km
Il sole sorge alle ore 05:57
Il sole tramonta alle ore 18:30
| Data e Ora | Cielo e Fenomeni | T °C | DP °C | Um. % | Pres. hPa | Vis. km | Vento km/h | |
|---|---|---|---|---|---|---|---|---|
| Oggi h: 16:00 | Foschia | 29 | 21 | 62 | 1006 | 5 | O/NO 18.5 | |
| Oggi h: 15:30 | Foschia | 29 | 22 | 66 | 1007 | 5 | O/NO 18.5 | |
| Oggi h: 15:00 | Foschia | 29 | 21 | 62 | 1007 | 5 | O/NO 18.5 | |
| Oggi h: 14:30 | Foschia | 29 | 21 | 62 | 1007 | 5 | O 18.5 | |
| Oggi h: 14:00 | Foschia | 29 | 21 | 62 | 1007 | 5 | O 18.5 | |
| Oggi h: 13:30 | Foschia | 29 | 21 | 62 | 1008 | 5 | O/NO 18.5 | |
| Oggi h: 13:00 | Foschia | 30 | 21 | 58 | 1008 | 5 | O/NO 18.5 | |
| Oggi h: 12:30 | Foschia | 30 | 22 | 62 | 1008 | 5 | O/NO 18.5 | |
| Oggi h: 12:00 | Foschia | 29 | 22 | 66 | 1008 | 5 | O/NO 20.3 | |
| Oggi h: 11:30 | Foschia | 29 | 22 | 66 | 1009 | 5 | O 18.5 | |
| Oggi h: 11:00 | Foschia | 29 | 23 | 70 | 1009 | 5 | O 16.7 | |
| Oggi h: 10:30 | Foschia | 28 | 22 | 69 | 1009 | 5 | O 20.3 | |
| Oggi h: 10:00 | Foschia | 29 | 22 | 66 | 1009 | 5 | O 22.2 | |
| Oggi h: 09:30 | Foschia | 28 | 22 | 69 | 1009 | 5 | O 18.5 | |
| Oggi h: 08:30 | Foschia | 28 | 22 | 69 | 1009 | 5 | O 16.7 | |
| Oggi h: 08:00 | Foschia | 26 | 23 | 83 | 1008 | 4 | O 7.4 | |
| Oggi h: 07:30 | Foschia | 25 | 23 | 88 | 1008 | 4 | O 7.4 | |
| Oggi h: 07:00 | Foschia | 25 | 23 | 88 | 1007 | 4 | O 7.4 | |
| Oggi h: 06:30 | Foschia | 24 | 22 | 88 | 1007 | 4 | N 5.5 | |
| Oggi h: 06:00 | Foschia | 24 | 22 | 88 | 1007 | 4 | N 5.5 | |
| Oggi h: 05:30 | Foschia | 24 | 22 | 88 | 1006 | 4 | N 5.5 | |
| Oggi h: 05:00 | Foschia | 24 | 22 | 88 | 1006 | 4 | N 5.5 | |
| Oggi h: 04:30 | Foschia | 24 | 22 | 88 | 1006 | 4 | N 5.5 | |
| Oggi h: 04:00 | Foschia | 24 | 22 | 88 | 1006 | 4 | N 3.7 | |
| Oggi h: 03:30 | Foschia | 24 | 22 | 88 | 1006 | 4 | N 5.5 | |
| Oggi h: 03:00 | Foschia | 25 | 22 | 83 | 1006 | 4 | N 5.5 | |
| Oggi h: 02:30 | Foschia | 24 | 22 | 88 | 1007 | 4 | N 3.7 | |
| Oggi h: 02:00 | Foschia | 25 | 22 | 83 | 1007 | 4 | N 5.5 | |
| Oggi h: 01:30 | Foschia | 25 | 22 | 83 | 1007 | 4 | SO 7.4 | |
| Oggi h: 01:00 | Pioggia | 25 | 22 | 83 | 1008 | 4 | N 3.7 | |
| Oggi h: 00:30 | Pioggia | 25 | 22 | 83 | 1008 | 4 | N 3.7 | |
| Oggi h: 00:00 | Foschia | 26 | 21 | 73 | 1008 | 4 | O 7.4 | |
| Ieri h: 23:30 | Foschia | 26 | 22 | 78 | 1008 | 4 | O/NO 7.4 | |
| Ieri h: 23:00 | Foschia | 26 | 22 | 78 | 1008 | 4 | O 7.4 | |
| Ieri h: 22:30 | Foschia | 26 | 22 | 78 | 1008 | 4 | N 5.5 | |
| Ieri h: 22:00 | Foschia | 26 | 22 | 78 | 1008 | 4 | N 5.5 | |
| Ieri h: 21:30 | Foschia | 26 | 22 | 78 | 1008 | 4 | N 5.5 | |
| Ieri h: 21:00 | Foschia | 26 | 22 | 78 | 1008 | 4 | O/NO 9.3 | |
| Ieri h: 20:30 | Foschia | 27 | 21 | 69 | 1007 | 4 | O/NO 7.4 | |
| Ieri h: 20:00 | Foschia | 27 | 21 | 69 | 1007 | 4 | O/NO 9.3 | |
| Ieri h: 19:30 | Foschia | 27 | 21 | 69 | 1007 | 4 | O/NO 11.1 | |
| Ieri h: 19:00 | Foschia | 28 | 22 | 69 | 1006 | 4 | O/NO 7.4 | |
| Ieri h: 18:30 | Foschia | 28 | 22 | 69 | 1006 | 4 | N 5.5 | |
| Ieri h: 18:00 | Foschia | 28 | 22 | 69 | 1006 | 4 | N 5.5 | |
| Ieri h: 17:30 | Foschia | 29 | 21 | 62 | 1005 | 5 | O 7.4 | |
| Ieri h: 17:00 | Foschia | 29 | 22 | 66 | 1005 | 5 | O 9.3 | |
| Ieri h: 16:30 | Foschia | 30 | 21 | 58 | 1005 | 5 | O 13 | |



